createdAt,value
2018-12-31T00:01:30.571Z,6.80
2018-12-31T00:03:59.167Z,6.70
2018-12-31T00:06:27.734Z,6.60
2018-12-31T00:08:56.311Z,6.60
2018-12-31T00:11:24.874Z,6.60
2018-12-31T00:13:53.465Z,6.60
2018-12-31T00:16:22.024Z,6.60
2018-12-31T00:18:50.616Z,6.60
2018-12-31T00:21:19.183Z,6.70
2018-12-31T00:23:47.743Z,6.60
2018-12-31T00:26:16.337Z,6.60
2018-12-31T00:28:44.898Z,6.70
2018-12-31T00:31:13.489Z,6.70
2018-12-31T00:33:42.048Z,6.70
2018-12-31T00:36:10.634Z,6.70
2018-12-31T00:38:39.195Z,6.70
2018-12-31T00:41:07.779Z,6.70
2018-12-31T00:43:36.344Z,6.60
2018-12-31T00:46:04.936Z,6.60
2018-12-31T00:48:33.489Z,6.60
2018-12-31T00:51:02.086Z,6.80
2018-12-31T00:53:30.645Z,6.90
2018-12-31T00:55:59.238Z,6.80
2018-12-31T00:58:27.796Z,6.90
2018-12-31T01:00:56.379Z,6.80
2018-12-31T01:03:25.017Z,6.80
2018-12-31T01:05:53.605Z,6.80
2018-12-31T01:08:22.233Z,6.90
2018-12-31T01:10:50.850Z,6.90
2018-12-31T01:13:19.417Z,6.80
2018-12-31T01:15:48.002Z,6.80
2018-12-31T01:18:16.564Z,6.70
2018-12-31T01:20:45.160Z,6.90
2018-12-31T01:23:13.719Z,6.90
2018-12-31T01:25:43.267Z,6.80
2018-12-31T01:28:11.881Z,6.90
2018-12-31T01:30:40.481Z,7.00
2018-12-31T01:33:09.048Z,7.00
2018-12-31T01:35:37.637Z,7.00
2018-12-31T01:38:06.191Z,7.00
2018-12-31T01:40:34.759Z,7.00
2018-12-31T01:43:03.348Z,6.90
2018-12-31T01:45:31.912Z,7.00
2018-12-31T01:48:00.501Z,6.90
2018-12-31T01:50:29.062Z,6.90
2018-12-31T01:52:57.652Z,7.00
2018-12-31T01:55:26.216Z,7.00
2018-12-31T01:57:54.800Z,6.90
2018-12-31T02:00:23.364Z,7.10
2018-12-31T02:02:51.957Z,7.10
2018-12-31T02:05:20.520Z,7.00
2018-12-31T02:07:49.107Z,7.20
2018-12-31T02:10:17.665Z,7.10
2018-12-31T02:12:46.252Z,7.10
2018-12-31T02:15:14.817Z,7.10
2018-12-31T02:17:43.404Z,7.10
2018-12-31T02:20:11.968Z,7.10
2018-12-31T02:22:40.552Z,7.10
2018-12-31T02:25:09.181Z,7.10
2018-12-31T02:27:37.773Z,7.10
2018-12-31T02:30:06.472Z,7.00
2018-12-31T02:32:35.231Z,7.10
2018-12-31T02:35:04.061Z,7.10
2018-12-31T02:37:32.643Z,7.20
2018-12-31T02:40:01.200Z,7.20
2018-12-31T02:42:29.801Z,7.10
2018-12-31T02:44:58.362Z,7.10
2018-12-31T02:47:26.925Z,7.20
2018-12-31T02:49:55.540Z,7.00
2018-12-31T02:52:24.101Z,7.00
2018-12-31T02:54:52.692Z,6.90
2018-12-31T02:57:21.248Z,7.00
2018-12-31T02:59:49.838Z,7.10
2018-12-31T03:02:18.396Z,7.10
2018-12-31T03:04:46.993Z,7.10
2018-12-31T03:07:15.552Z,7.10
2018-12-31T03:09:44.148Z,7.10
2018-12-31T03:12:12.713Z,7.10
2018-12-31T03:14:41.302Z,7.10
2018-12-31T03:17:09.864Z,7.10
2018-12-31T03:19:38.453Z,7.00
2018-12-31T03:22:07.021Z,7.00
2018-12-31T03:24:35.613Z,7.10
2018-12-31T03:27:04.180Z,7.10
2018-12-31T03:29:32.764Z,7.10
2018-12-31T03:32:01.325Z,7.10
2018-12-31T03:34:29.912Z,7.10
2018-12-31T03:36:58.473Z,7.10
2018-12-31T03:39:27.119Z,7.00
2018-12-31T03:41:55.620Z,7.00
2018-12-31T03:44:24.208Z,7.00
2018-12-31T03:46:52.772Z,7.00
2018-12-31T03:49:21.359Z,7.10
2018-12-31T03:51:49.917Z,7.10
2018-12-31T03:54:18.506Z,7.20
2018-12-31T03:56:47.073Z,7.30
2018-12-31T03:59:15.656Z,7.20
2018-12-31T04:01:44.238Z,7.30
2018-12-31T04:04:12.830Z,7.30
2018-12-31T04:06:41.398Z,7.10
2018-12-31T04:09:10.026Z,7.10
2018-12-31T04:11:38.621Z,7.10
2018-12-31T04:14:07.179Z,7.10
2018-12-31T04:16:35.772Z,7.00
2018-12-31T04:19:04.342Z,7.10
2018-12-31T04:21:32.933Z,7.20
2018-12-31T04:24:01.553Z,7.20
2018-12-31T04:26:30.096Z,7.20
2018-12-31T04:28:58.649Z,7.20
2018-12-31T04:31:27.242Z,7.20
2018-12-31T04:33:55.793Z,7.20
2018-12-31T04:36:24.377Z,7.20
2018-12-31T04:38:52.945Z,7.30
2018-12-31T04:41:21.533Z,7.20
2018-12-31T04:43:50.093Z,7.10
2018-12-31T04:46:18.684Z,7.20
2018-12-31T04:48:47.241Z,7.20
2018-12-31T04:51:15.835Z,7.10
2018-12-31T04:53:44.394Z,7.20
2018-12-31T04:56:12.975Z,7.20
2018-12-31T04:58:41.530Z,7.20
2018-12-31T05:01:12.793Z,7.20
2018-12-31T05:03:41.352Z,7.20
2018-12-31T05:06:09.940Z,7.20
2018-12-31T05:08:38.499Z,7.30
2018-12-31T05:11:07.081Z,7.20
2018-12-31T05:13:35.645Z,7.10
2018-12-31T05:16:06.162Z,7.20
2018-12-31T05:18:34.737Z,7.30
2018-12-31T05:21:03.467Z,7.10
2018-12-31T05:23:32.008Z,7.10
2018-12-31T05:26:00.568Z,7.10
2018-12-31T05:28:29.177Z,7.20
2018-12-31T05:30:57.720Z,7.20
2018-12-31T05:33:26.312Z,7.10
2018-12-31T05:35:54.876Z,7.30
2018-12-31T05:38:23.579Z,7.20
2018-12-31T05:40:52.133Z,7.30
2018-12-31T05:43:20.722Z,7.20
2018-12-31T05:45:49.280Z,7.30
2018-12-31T05:48:17.924Z,7.30
2018-12-31T05:50:46.559Z,7.40
2018-12-31T05:53:15.120Z,7.40
2018-12-31T05:55:43.680Z,7.40
2018-12-31T05:58:12.270Z,7.40
2018-12-31T06:00:42.124Z,7.50
2018-12-31T06:03:10.819Z,7.40
2018-12-31T06:05:39.384Z,7.50
2018-12-31T06:08:07.972Z,7.50
2018-12-31T06:10:36.533Z,7.40
2018-12-31T06:13:05.116Z,7.40
2018-12-31T06:15:33.672Z,7.50
2018-12-31T06:18:02.265Z,7.50
2018-12-31T06:20:30.821Z,7.40
2018-12-31T06:22:59.417Z,7.40
2018-12-31T06:25:27.981Z,7.40
2018-12-31T06:27:56.577Z,7.40
2018-12-31T06:30:25.145Z,7.40
2018-12-31T06:32:53.702Z,7.40
2018-12-31T06:35:22.296Z,7.40
2018-12-31T06:37:50.849Z,7.40
2018-12-31T06:40:19.439Z,7.50
2018-12-31T06:42:48.075Z,7.50
2018-12-31T06:45:16.592Z,7.50
2018-12-31T06:47:45.153Z,7.50
2018-12-31T06:50:13.737Z,7.40
2018-12-31T06:52:42.301Z,7.50
2018-12-31T06:55:10.890Z,7.40
2018-12-31T06:57:39.453Z,7.50
2018-12-31T07:00:08.380Z,7.50
2018-12-31T07:02:36.949Z,7.50
2018-12-31T07:05:05.665Z,7.50
2018-12-31T07:07:34.220Z,7.40
2018-12-31T07:10:02.821Z,7.50
2018-12-31T07:12:31.379Z,7.50
2018-12-31T07:14:59.964Z,7.50
2018-12-31T07:17:28.525Z,7.50
2018-12-31T07:19:57.110Z,7.50
2018-12-31T07:22:25.679Z,7.50
2018-12-31T07:24:54.261Z,7.60
2018-12-31T07:27:22.827Z,7.70
2018-12-31T07:29:51.479Z,7.70
2018-12-31T07:32:20.045Z,7.60
2018-12-31T07:34:48.636Z,7.60
2018-12-31T07:37:17.201Z,7.50
2018-12-31T07:39:45.797Z,7.60
2018-12-31T07:42:14.340Z,7.60
2018-12-31T07:44:42.906Z,7.50
2018-12-31T07:47:11.491Z,7.60
2018-12-31T07:49:40.072Z,7.60
2018-12-31T07:52:08.753Z,7.60
2018-12-31T07:54:37.312Z,7.70
2018-12-31T07:57:05.896Z,7.70
2018-12-31T07:59:34.460Z,7.70
2018-12-31T08:02:03.061Z,7.60
2018-12-31T08:04:31.621Z,7.60
2018-12-31T08:07:00.204Z,7.50
2018-12-31T08:09:28.761Z,7.60
2018-12-31T08:11:57.353Z,7.60
2018-12-31T08:14:25.918Z,7.70
2018-12-31T08:16:54.500Z,7.80
2018-12-31T08:19:23.068Z,7.80
2018-12-31T08:21:51.733Z,7.80
2018-12-31T08:24:20.301Z,7.80
2018-12-31T08:26:48.901Z,7.80
2018-12-31T08:29:17.470Z,7.70
2018-12-31T08:31:46.051Z,7.70
2018-12-31T08:34:14.621Z,7.70
2018-12-31T08:36:43.205Z,7.80
2018-12-31T08:39:11.756Z,7.60
2018-12-31T08:41:40.349Z,7.70
2018-12-31T08:44:08.905Z,7.80
2018-12-31T08:46:37.493Z,7.80
2018-12-31T08:49:06.049Z,7.90
2018-12-31T08:51:34.654Z,7.80
2018-12-31T08:54:03.205Z,7.80
2018-12-31T08:56:31.783Z,7.80
2018-12-31T08:59:00.368Z,7.90
2018-12-31T09:01:28.920Z,7.90
2018-12-31T09:03:57.513Z,7.90
2018-12-31T09:06:26.073Z,8.00
2018-12-31T09:08:54.660Z,8.10
2018-12-31T09:11:23.228Z,8.10
2018-12-31T09:13:51.816Z,8.10
2018-12-31T09:16:20.377Z,8.00
2018-12-31T09:18:48.968Z,8.00
2018-12-31T09:21:17.525Z,8.00
2018-12-31T09:23:46.115Z,8.10
2018-12-31T09:26:14.676Z,8.10
2018-12-31T09:28:43.263Z,8.10
2018-12-31T09:31:11.826Z,8.10
2018-12-31T09:33:40.425Z,8.30
2018-12-31T09:36:08.977Z,8.30
2018-12-31T09:38:37.558Z,8.20
2018-12-31T09:41:06.112Z,8.20
2018-12-31T09:43:34.704Z,8.20
2018-12-31T09:46:03.263Z,8.10
2018-12-31T09:48:31.855Z,8.30
2018-12-31T09:51:00.412Z,8.30
2018-12-31T09:53:28.998Z,8.40
2018-12-31T09:55:57.552Z,8.40
2018-12-31T09:58:26.105Z,8.50
2018-12-31T10:00:54.764Z,8.50
2018-12-31T10:03:23.319Z,8.50
2018-12-31T10:05:51.912Z,8.50
2018-12-31T10:08:20.464Z,8.30
2018-12-31T10:10:49.056Z,8.40
2018-12-31T10:13:17.616Z,8.50
2018-12-31T10:15:46.272Z,8.50
2018-12-31T10:18:14.832Z,8.50
2018-12-31T10:20:43.421Z,8.50
2018-12-31T10:23:11.980Z,8.60
2018-12-31T10:25:40.589Z,8.60
2018-12-31T10:28:09.128Z,8.60
2018-12-31T10:30:37.717Z,8.60
2018-12-31T10:33:06.285Z,8.50
2018-12-31T10:35:34.868Z,8.50
2018-12-31T10:38:03.425Z,8.60
2018-12-31T10:40:32.077Z,8.60
2018-12-31T10:43:00.635Z,8.70
2018-12-31T10:45:29.225Z,8.70
2018-12-31T10:47:57.783Z,8.70
2018-12-31T10:50:26.379Z,8.70
2018-12-31T10:52:54.932Z,8.80
2018-12-31T10:55:23.596Z,8.80
2018-12-31T10:57:52.145Z,8.80
2018-12-31T11:00:22.104Z,8.90
2018-12-31T11:02:50.736Z,8.90
2018-12-31T11:05:19.325Z,8.90
2018-12-31T11:07:47.879Z,8.90
2018-12-31T11:10:16.532Z,8.90
2018-12-31T11:12:45.087Z,8.90
2018-12-31T11:15:13.680Z,8.90
2018-12-31T11:17:42.249Z,8.80
2018-12-31T11:20:10.835Z,8.90
2018-12-31T11:22:39.392Z,9.00
2018-12-31T11:25:07.988Z,9.10
2018-12-31T11:27:36.544Z,9.20
2018-12-31T11:30:05.973Z,9.20
2018-12-31T11:32:35.399Z,9.20
2018-12-31T11:35:04.061Z,9.10
2018-12-31T11:37:34.813Z,9.20
2018-12-31T11:40:02.889Z,9.30
2018-12-31T11:42:31.465Z,9.30
2018-12-31T11:45:00.020Z,9.40
2018-12-31T11:47:28.620Z,9.40
2018-12-31T11:49:57.164Z,9.20
2018-12-31T11:52:25.757Z,9.30
2018-12-31T11:54:54.313Z,9.30
2018-12-31T11:57:22.905Z,9.20
2018-12-31T11:59:51.608Z,9.30
2018-12-31T12:02:23.621Z,9.40
2018-12-31T12:04:50.448Z,9.40
2018-12-31T12:07:19.045Z,9.30
2018-12-31T12:09:47.604Z,9.30
2018-12-31T12:12:16.198Z,9.30
2018-12-31T12:14:44.747Z,9.30
2018-12-31T12:17:13.340Z,9.40
2018-12-31T12:19:41.898Z,9.30
2018-12-31T12:22:10.494Z,9.30
2018-12-31T12:24:39.049Z,9.20
2018-12-31T12:27:07.645Z,9.20
2018-12-31T12:29:36.204Z,9.20
2018-12-31T12:32:04.789Z,9.20
2018-12-31T12:34:33.343Z,9.20
2018-12-31T12:37:01.923Z,9.30
2018-12-31T12:39:30.493Z,9.30
2018-12-31T12:41:59.105Z,9.30
2018-12-31T12:44:27.660Z,9.40
2018-12-31T12:46:56.257Z,9.40
2018-12-31T12:49:24.812Z,9.50
2018-12-31T12:51:53.474Z,9.40
2018-12-31T12:54:22.060Z,9.40
2018-12-31T12:56:50.616Z,9.50
2018-12-31T12:59:19.209Z,9.40
2018-12-31T13:01:47.756Z,9.40
2018-12-31T13:04:16.615Z,9.40
2018-12-31T13:06:45.176Z,9.40
2018-12-31T13:09:13.755Z,9.40
2018-12-31T13:11:42.317Z,9.30
2018-12-31T13:14:12.211Z,9.30
2018-12-31T13:16:40.965Z,9.30
2018-12-31T13:19:09.556Z,9.30
2018-12-31T13:21:38.114Z,9.30
2018-12-31T13:24:06.697Z,9.30
2018-12-31T13:26:35.326Z,9.40
2018-12-31T13:29:05.695Z,9.40
2018-12-31T13:31:34.257Z,9.40
2018-12-31T13:34:02.975Z,9.40
2018-12-31T13:36:31.525Z,9.40
2018-12-31T13:39:00.112Z,9.40
2018-12-31T13:41:29.085Z,9.40
2018-12-31T13:43:57.668Z,9.30
2018-12-31T13:46:26.228Z,9.30
2018-12-31T13:48:54.809Z,9.20
2018-12-31T13:51:23.368Z,9.30
2018-12-31T13:53:52.254Z,9.30
2018-12-31T13:56:20.817Z,9.20
2018-12-31T13:58:49.397Z,9.20
2018-12-31T14:01:17.956Z,9.40
2018-12-31T14:03:46.545Z,9.30
2018-12-31T14:06:15.408Z,9.30
2018-12-31T14:08:43.988Z,9.40
2018-12-31T14:11:12.544Z,9.40
2018-12-31T14:13:41.101Z,9.30
2018-12-31T14:16:09.683Z,9.30
2018-12-31T14:18:38.544Z,9.40
2018-12-31T14:21:07.129Z,9.40
2018-12-31T14:23:35.693Z,9.50
2018-12-31T14:26:04.352Z,9.40
2018-12-31T14:28:32.907Z,9.40
2018-12-31T14:31:01.487Z,9.40
2018-12-31T14:33:30.054Z,9.40
2018-12-31T14:35:58.637Z,9.40
2018-12-31T14:38:27.188Z,9.30
2018-12-31T14:40:55.772Z,9.50
2018-12-31T14:43:24.328Z,9.50
2018-12-31T14:45:52.922Z,9.50
2018-12-31T14:48:21.496Z,9.50
2018-12-31T14:50:50.079Z,9.50
2018-12-31T14:53:18.636Z,9.60
2018-12-31T14:55:47.496Z,9.50
2018-12-31T14:58:16.050Z,9.40
2018-12-31T15:00:44.640Z,9.40
2018-12-31T15:03:13.197Z,9.40
2018-12-31T15:05:41.785Z,9.50
2018-12-31T15:08:10.340Z,9.50
2018-12-31T15:10:38.932Z,9.50
2018-12-31T15:13:07.488Z,9.60
2018-12-31T15:15:36.077Z,9.50
2018-12-31T15:18:04.708Z,9.50
2018-12-31T15:20:33.317Z,9.50
2018-12-31T15:23:02.072Z,9.50
2018-12-31T15:25:30.627Z,9.50
2018-12-31T15:27:59.216Z,9.40
2018-12-31T15:30:27.776Z,9.40
2018-12-31T15:32:56.365Z,9.30
2018-12-31T15:35:25.224Z,9.10
2018-12-31T15:37:53.812Z,9.20
2018-12-31T15:40:22.372Z,9.20
2018-12-31T15:42:50.965Z,9.30
2018-12-31T15:45:19.520Z,9.30
2018-12-31T15:47:48.108Z,9.20
2018-12-31T15:50:16.672Z,9.20
2018-12-31T15:52:45.261Z,9.20
2018-12-31T15:55:13.816Z,9.10
2018-12-31T15:57:42.401Z,9.10
2018-12-31T16:00:11.026Z,9.20
2018-12-31T16:02:39.609Z,9.10
2018-12-31T16:05:08.237Z,9.20
2018-12-31T16:07:36.829Z,9.30
2018-12-31T16:10:06.120Z,9.30
2018-12-31T16:12:34.709Z,9.10
2018-12-31T16:15:03.336Z,9.10
2018-12-31T16:17:31.920Z,9.20
2018-12-31T16:20:00.478Z,9.30
2018-12-31T16:22:29.068Z,9.20
2018-12-31T16:24:57.625Z,9.10
2018-12-31T16:27:26.446Z,9.10
2018-12-31T16:29:55.006Z,9.10
2018-12-31T16:32:23.597Z,9.20
2018-12-31T16:34:52.145Z,9.10
2018-12-31T16:37:20.741Z,9.20
2018-12-31T16:39:49.606Z,9.20
2018-12-31T16:42:18.189Z,9.10
2018-12-31T16:44:46.747Z,9.20
2018-12-31T16:47:15.341Z,9.20
2018-12-31T16:49:43.901Z,9.20
2018-12-31T16:52:12.455Z,9.00
2018-12-31T16:54:41.305Z,9.00
2018-12-31T16:57:09.860Z,9.10
2018-12-31T16:59:38.457Z,9.10
2018-12-31T17:02:08.136Z,9.10
2018-12-31T17:04:36.800Z,9.00
2018-12-31T17:07:05.405Z,9.00
2018-12-31T17:09:33.963Z,9.10
2018-12-31T17:12:02.516Z,9.00
2018-12-31T17:14:31.100Z,9.00
2018-12-31T17:16:59.660Z,9.00
2018-12-31T17:19:28.557Z,9.00
2018-12-31T17:21:57.108Z,8.90
2018-12-31T17:24:25.699Z,9.00
2018-12-31T17:26:54.261Z,9.00
2018-12-31T17:29:22.854Z,8.90
2018-12-31T17:31:51.710Z,8.90
2018-12-31T17:34:20.306Z,8.90
2018-12-31T17:36:48.866Z,9.00
2018-12-31T17:39:17.448Z,9.00
2018-12-31T17:41:46.004Z,9.10
2018-12-31T17:44:14.602Z,8.90
2018-12-31T17:46:43.158Z,8.80
2018-12-31T17:49:11.741Z,8.80
2018-12-31T17:51:40.303Z,8.80
2018-12-31T17:54:08.892Z,8.90
2018-12-31T17:56:37.458Z,9.00
2018-12-31T17:59:06.038Z,8.90
2018-12-31T18:01:34.592Z,8.90
2018-12-31T18:04:03.181Z,9.00
2018-12-31T18:06:31.741Z,9.00
2018-12-31T18:09:00.399Z,9.00
2018-12-31T18:11:29.155Z,8.90
2018-12-31T18:13:57.713Z,8.90
2018-12-31T18:16:26.296Z,8.90
2018-12-31T18:18:54.853Z,8.90
2018-12-31T18:21:23.449Z,8.90
2018-12-31T18:23:52.297Z,8.80
2018-12-31T18:26:20.884Z,8.90
2018-12-31T18:28:49.452Z,8.80
2018-12-31T18:31:18.047Z,8.90
2018-12-31T18:33:46.602Z,8.90
2018-12-31T18:36:15.200Z,9.00
2018-12-31T18:38:44.011Z,8.70
2018-12-31T18:41:12.601Z,8.80
2018-12-31T18:43:41.172Z,8.70
2018-12-31T18:46:09.760Z,8.70
2018-12-31T18:48:38.394Z,8.80
2018-12-31T18:51:06.981Z,8.90
2018-12-31T18:53:35.540Z,8.90
2018-12-31T18:56:04.123Z,8.80
2018-12-31T18:58:32.690Z,8.80
2018-12-31T19:01:01.274Z,8.80
2018-12-31T19:03:30.029Z,8.80
2018-12-31T19:05:58.623Z,8.80
2018-12-31T19:08:27.180Z,8.80
2018-12-31T19:10:55.769Z,8.80
2018-12-31T19:13:24.328Z,8.80
2018-12-31T19:15:53.124Z,8.80
2018-12-31T19:18:21.676Z,8.90
2018-12-31T19:20:50.265Z,8.90
2018-12-31T19:23:18.820Z,8.80
2018-12-31T19:25:47.410Z,8.80
2018-12-31T19:28:15.959Z,8.70
2018-12-31T19:30:44.530Z,8.70
2018-12-31T19:33:13.109Z,8.60
2018-12-31T19:35:41.664Z,8.70
2018-12-31T19:38:10.291Z,8.80
2018-12-31T19:40:38.844Z,8.80
2018-12-31T19:43:07.628Z,8.80
2018-12-31T19:45:36.184Z,8.90
2018-12-31T19:48:04.763Z,8.90
2018-12-31T19:50:33.316Z,8.80
2018-12-31T19:53:01.918Z,8.80
2018-12-31T19:55:30.772Z,8.80
2018-12-31T19:57:59.360Z,8.70
2018-12-31T20:00:27.923Z,8.80
2018-12-31T20:02:56.500Z,8.80
2018-12-31T20:05:25.056Z,8.90
2018-12-31T20:07:53.649Z,8.80
2018-12-31T20:10:23.580Z,8.80
2018-12-31T20:12:52.189Z,8.80
2018-12-31T20:15:20.747Z,8.70
2018-12-31T20:17:49.533Z,8.80
2018-12-31T20:20:18.084Z,8.80
2018-12-31T20:22:46.669Z,8.80
2018-12-31T20:25:15.228Z,8.80
2018-12-31T20:27:43.811Z,8.80
2018-12-31T20:30:12.370Z,8.70
2018-12-31T20:32:40.956Z,8.70
2018-12-31T20:35:09.512Z,8.80
2018-12-31T20:37:38.071Z,8.70
2018-12-31T20:40:07.029Z,8.80
2018-12-31T20:42:35.581Z,8.80
2018-12-31T20:45:04.915Z,8.80
2018-12-31T20:47:33.472Z,8.80
2018-12-31T20:50:02.426Z,8.80
2018-12-31T20:52:30.982Z,8.80
2018-12-31T20:54:59.568Z,8.80
2018-12-31T20:57:28.188Z,8.80
2018-12-31T20:59:56.782Z,8.80
2018-12-31T21:02:25.341Z,8.80
2018-12-31T21:04:53.933Z,8.80
2018-12-31T21:07:22.492Z,8.80
2018-12-31T21:09:51.150Z,8.80
2018-12-31T21:12:19.709Z,8.70
2018-12-31T21:14:48.300Z,8.80
2018-12-31T21:17:16.960Z,8.80
2018-12-31T21:19:45.548Z,8.70
2018-12-31T21:22:14.107Z,8.70
2018-12-31T21:24:42.696Z,8.70
2018-12-31T21:27:11.254Z,8.70
2018-12-31T21:29:39.853Z,8.70
2018-12-31T21:32:08.409Z,8.80
2018-12-31T21:34:36.992Z,8.80
2018-12-31T21:37:05.548Z,8.80
2018-12-31T21:39:34.133Z,8.80
2018-12-31T21:42:02.698Z,8.70
2018-12-31T21:44:31.480Z,8.80
2018-12-31T21:47:00.041Z,8.70
2018-12-31T21:49:28.630Z,8.80
2018-12-31T21:51:57.188Z,8.70
2018-12-31T21:54:25.779Z,8.70
2018-12-31T21:56:54.333Z,8.80
2018-12-31T21:59:22.897Z,8.80
2018-12-31T22:01:51.480Z,8.80
2018-12-31T22:04:20.049Z,8.70
2018-12-31T22:06:48.628Z,8.80
2018-12-31T22:09:17.192Z,8.70
2018-12-31T22:11:45.978Z,8.80
2018-12-31T22:14:14.540Z,8.80
2018-12-31T22:16:43.120Z,8.80
2018-12-31T22:19:11.676Z,8.90
2018-12-31T22:21:40.270Z,8.80
2018-12-31T22:24:09.228Z,8.80
2018-12-31T22:26:37.821Z,8.80
2018-12-31T22:29:06.373Z,8.70
2018-12-31T22:31:34.961Z,8.70
2018-12-31T22:34:03.584Z,8.70
2018-12-31T22:36:32.168Z,8.80
2018-12-31T22:39:00.726Z,8.60
2018-12-31T22:41:29.325Z,8.60
2018-12-31T22:43:57.881Z,8.70
2018-12-31T22:46:26.472Z,8.70
2018-12-31T22:48:55.029Z,8.70
2018-12-31T22:51:23.832Z,8.80
2018-12-31T22:53:52.382Z,8.70
2018-12-31T22:56:20.977Z,8.70
2018-12-31T22:58:49.538Z,8.60
2018-12-31T23:01:18.262Z,8.50
2018-12-31T23:03:47.017Z,8.50
2018-12-31T23:06:15.668Z,8.60
2018-12-31T23:08:44.172Z,8.70
2018-12-31T23:11:12.770Z,8.70
2018-12-31T23:13:41.331Z,8.70
2018-12-31T23:16:10.234Z,8.70
2018-12-31T23:18:38.796Z,8.80
2018-12-31T23:21:07.396Z,8.60
2018-12-31T23:23:35.957Z,8.60
2018-12-31T23:26:04.553Z,8.60
2018-12-31T23:28:33.115Z,8.60
2018-12-31T23:31:01.708Z,8.60
2018-12-31T23:33:30.273Z,8.60
2018-12-31T23:35:58.844Z,8.70
2018-12-31T23:38:27.436Z,8.70
2018-12-31T23:40:56.001Z,8.70
2018-12-31T23:43:24.798Z,8.70
2018-12-31T23:45:53.359Z,8.70
2018-12-31T23:48:21.948Z,8.70
2018-12-31T23:50:50.512Z,8.70
2018-12-31T23:53:19.104Z,8.60
2018-12-31T23:55:47.941Z,8.60
2018-12-31T23:58:16.542Z,8.70
